This is the latest recevied weather packets stored in our database for station/object OK1FET-4. If no packets are shown the sender has not sent any weather packets the latest 1 day(s).
| Time | Temp. | Humidity | Pressure | Rain* | Wind** | Luminosity | Snow |
|---|---|---|---|---|---|---|---|
| 1778009206 | 16.67° C | 62% | 1005 hPa | - | 2.68 m/s, 248° | - | - |
| 1778009206 | 16.67° C | 62% | 1005 hPa | - | 2.68 m/s, 248° | - | - |
| 1778009206 | 16.67° C | 62% | 1005 hPa | - | 2.68 m/s, 248° | - | - |
| 1778008905 | 17.22° C | 59% | 1004.7 hPa | - | 0.45 m/s, 124° | - | - |
| 1778008905 | 17.22° C | 59% | 1004.7 hPa | - | 0.45 m/s, 124° | - | - |
| 1778008905 | 17.22° C | 59% | 1004.7 hPa | - | 0.45 m/s, 124° | - | - |
| 1778008604 | 17.22° C | 58% | 1004.5 hPa | - | 0.89 m/s, 119° | - | - |
| 1778008604 | 17.22° C | 58% | 1004.5 hPa | - | 0.89 m/s, 119° | - | - |
| 1778008604 | 17.22° C | 58% | 1004.5 hPa | - | 0.89 m/s, 119° | - | - |
| 1778008304 | 17.22° C | 58% | 1004.4 hPa | - | 1.34 m/s, 102° | - | - |
| 1778008304 | 17.22° C | 58% | 1004.4 hPa | - | 1.34 m/s, 102° | - | - |
| 1778008003 | 17.22° C | 58% | 1004.4 hPa | - | 1.34 m/s, 85° | - | - |
| 1778008003 | 17.22° C | 58% | 1004.4 hPa | - | 1.34 m/s, 85° | - | - |
| 1778008003 | 17.22° C | 58% | 1004.4 hPa | - | 1.34 m/s, 85° | - | - |
| 1778007702 | 17.22° C | 58% | 1004.4 hPa | - | 1.34 m/s, 53° | - | - |
| 1778007702 | 17.22° C | 58% | 1004.4 hPa | - | 1.34 m/s, 53° | - | - |
| 1778007702 | 17.22° C | 58% | 1004.4 hPa | - | 1.34 m/s, 53° | - | - |
| 1778007401 | 17.22° C | 58% | 1004.5 hPa | - | 1.34 m/s, 50° | - | - |
| 1778007401 | 17.22° C | 58% | 1004.5 hPa | - | 1.34 m/s, 50° | - | - |
| 1778007101 | 17.22° C | 57% | 1004.4 hPa | - | 0.89 m/s, 45° | - | - |
| 1778007101 | 17.22° C | 57% | 1004.4 hPa | - | 0.89 m/s, 45° | - | - |
| 1778007101 | 17.22° C | 57% | 1004.4 hPa | - | 0.89 m/s, 45° | - | - |
| 1778006800 | 17.22° C | 57% | 1004.3 hPa | - | 0.45 m/s, 83° | - | - |
| 1778006800 | 17.22° C | 57% | 1004.3 hPa | - | 0.45 m/s, 83° | - | - |
| 1778006800 | 17.22° C | 57% | 1004.3 hPa | - | 0.45 m/s, 83° | - | - |
* Rain since midnight (hover to see other rain measurements)
** Current wind speed in m/s (hover to see current wind gust speed)